sensor_id;sensor_type;location;lat;lon;timestamp;pressure;altitude;pressure_sealevel;temperature;humidity
56174;BME280;42058;52.308;20.924;2022-07-24T00:02:12;100594.69;;;21.92;100.00
56174;BME280;42058;52.308;20.924;2022-07-24T00:04:38;100599.20;;;21.91;100.00
56174;BME280;42058;52.308;20.924;2022-07-24T00:07:04;100599.69;;;21.91;100.00
56174;BME280;42058;52.308;20.924;2022-07-24T00:09:30;100594.80;;;21.90;100.00
56174;BME280;42058;52.308;20.924;2022-07-24T00:11:57;100600.16;;;21.90;100.00
56174;BME280;42058;52.308;20.924;2022-07-24T00:14:24;100597.11;;;21.89;100.00
56174;BME280;42058;52.308;20.924;2022-07-24T00:16:50;100598.56;;;21.87;100.00
56174;BME280;42058;52.308;20.924;2022-07-24T00:19:16;100601.13;;;21.89;100.00
56174;BME280;42058;52.308;20.924;2022-07-24T00:21:42;100602.09;;;21.88;100.00
56174;BME280;42058;52.308;20.924;2022-07-24T00:24:08;100604.41;;;21.87;100.00
56174;BME280;42058;52.308;20.924;2022-07-24T00:26:35;100606.70;;;21.86;100.00
56174;BME280;42058;52.308;20.924;2022-07-24T00:29:02;100598.88;;;21.83;100.00
56174;BME280;42058;52.308;20.924;2022-07-24T00:31:28;100603.37;;;21.82;100.00
56174;BME280;42058;52.308;20.924;2022-07-24T00:33:54;100608.84;;;21.81;100.00
56174;BME280;42058;52.308;20.924;2022-07-24T00:36:20;100607.40;;;21.82;100.00
56174;BME280;42058;52.308;20.924;2022-07-24T00:38:47;100596.69;;;21.82;100.00
56174;BME280;42058;52.308;20.924;2022-07-24T00:41:13;100605.21;;;21.82;100.00
56174;BME280;42058;52.308;20.924;2022-07-24T00:44:00;100605.57;;;21.83;100.00
56174;BME280;42058;52.308;20.924;2022-07-24T00:46:29;100613.25;;;21.82;100.00
56174;BME280;42058;52.308;20.924;2022-07-24T00:48:55;100617.86;;;21.80;100.00
56174;BME280;42058;52.308;20.924;2022-07-24T00:51:21;100619.66;;;21.79;100.00
56174;BME280;42058;52.308;20.924;2022-07-24T00:53:47;100620.54;;;21.80;100.00
56174;BME280;42058;52.308;20.924;2022-07-24T00:56:14;100615.19;;;21.80;100.00
56174;BME280;42058;52.308;20.924;2022-07-24T00:58:40;100617.86;;;21.80;100.00
56174;BME280;42058;52.308;20.924;2022-07-24T01:01:06;100621.88;;;21.80;100.00
56174;BME280;42058;52.308;20.924;2022-07-24T01:03:32;100617.12;;;21.78;100.00
56174;BME280;42058;52.308;20.924;2022-07-24T01:05:59;100621.14;;;21.78;100.00
56174;BME280;42058;52.308;20.924;2022-07-24T01:08:25;100627.34;;;21.78;100.00
56174;BME280;42058;52.308;20.924;2022-07-24T01:10:51;100627.23;;;21.80;100.00
56174;BME280;42058;52.308;20.924;2022-07-24T01:13:17;100640.63;;;21.80;100.00
56174;BME280;42058;52.308;20.924;2022-07-24T01:15:46;100643.52;;;21.77;100.00
56174;BME280;42058;52.308;20.924;2022-07-24T01:18:13;100639.19;;;21.68;100.00
56174;BME280;42058;52.308;20.924;2022-07-24T01:20:39;100645.16;;;21.59;100.00
56174;BME280;42058;52.308;20.924;2022-07-24T01:23:05;100657.39;;;21.50;100.00
56174;BME280;42058;52.308;20.924;2022-07-24T01:25:31;100653.09;;;21.41;100.00
56174;BME280;42058;52.308;20.924;2022-07-24T01:27:57;100659.30;;;21.28;100.00
56174;BME280;42058;52.308;20.924;2022-07-24T01:30:24;100665.16;;;21.21;100.00
56174;BME280;42058;52.308;20.924;2022-07-24T01:32:50;100668.94;;;21.11;100.00
56174;BME280;42058;52.308;20.924;2022-07-24T01:35:16;100668.61;;;21.03;100.00
56174;BME280;42058;52.308;20.924;2022-07-24T01:37:42;100663.84;;;20.93;100.00
56174;BME280;42058;52.308;20.924;2022-07-24T01:40:09;100671.52;;;20.85;100.00
56174;BME280;42058;52.308;20.924;2022-07-24T01:42:36;100670.70;;;20.78;100.00
56174;BME280;42058;52.308;20.924;2022-07-24T01:45:03;100671.96;;;20.72;100.00
56174;BME280;42058;52.308;20.924;2022-07-24T01:47:29;100670.42;;;20.68;100.00
56174;BME280;42058;52.308;20.924;2022-07-24T01:49:55;100671.22;;;20.63;100.00
56174;BME280;42058;52.308;20.924;2022-07-24T01:52:21;100668.70;;;20.60;100.00
56174;BME280;42058;52.308;20.924;2022-07-24T01:54:49;100676.16;;;20.54;100.00
56174;BME280;42058;52.308;20.924;2022-07-24T01:57:15;100670.34;;;20.48;100.00
56174;BME280;42058;52.308;20.924;2022-07-24T01:59:42;100676.84;;;20.44;100.00
56174;BME280;42058;52.308;20.924;2022-07-24T02:02:08;100671.32;;;20.40;100.00
56174;BME280;42058;52.308;20.924;2022-07-24T02:04:34;100674.27;;;20.35;100.00
56174;BME280;42058;52.308;20.924;2022-07-24T02:07:00;100683.36;;;20.32;100.00
56174;BME280;42058;52.308;20.924;2022-07-24T02:09:26;100681.84;;;20.28;100.00
56174;BME280;42058;52.308;20.924;2022-07-24T02:11:53;100682.52;;;20.25;100.00
56174;BME280;42058;52.308;20.924;2022-07-24T02:14:19;100686.12;;;20.24;100.00
56174;BME280;42058;52.308;20.924;2022-07-24T02:16:46;100680.20;;;20.19;100.00
56174;BME280;42058;52.308;20.924;2022-07-24T02:19:13;100687.67;;;20.13;100.00
56174;BME280;42058;52.308;20.924;2022-07-24T02:21:39;100686.52;;;20.10;100.00
56174;BME280;42058;52.308;20.924;2022-07-24T02:24:05;100689.38;;;20.07;100.00
56174;BME280;42058;52.308;20.924;2022-07-24T02:26:32;100681.84;;;20.07;100.00
56174;BME280;42058;52.308;20.924;2022-07-24T02:28:59;100683.36;;;20.04;100.00
56174;BME280;42058;52.308;20.924;2022-07-24T02:31:25;100688.43;;;20.01;100.00
56174;BME280;42058;52.308;20.924;2022-07-24T02:33:51;100685.45;;;19.98;100.00
56174;BME280;42058;52.308;20.924;2022-07-24T02:36:17;100686.12;;;19.95;100.00
56174;BME280;42058;52.308;20.924;2022-07-24T02:38:43;100688.23;;;19.90;100.00
56174;BME280;42058;52.308;20.924;2022-07-24T02:41:09;100696.03;;;19.86;100.00
56174;BME280;42058;52.308;20.924;2022-07-24T02:43:36;100686.98;;;19.81;100.00
56174;BME280;42058;52.308;20.924;2022-07-24T02:46:02;100688.02;;;19.78;100.00
56174;BME280;42058;52.308;20.924;2022-07-24T02:48:28;100681.82;;;19.78;100.00
56174;BME280;42058;52.308;20.924;2022-07-24T02:50:54;100686.31;;;19.77;100.00
56174;BME280;42058;52.308;20.924;2022-07-24T02:53:20;100684.13;;;19.77;100.00
56174;BME280;42058;52.308;20.924;2022-07-24T02:55:46;100682.88;;;19.75;100.00
56174;BME280;42058;52.308;20.924;2022-07-24T02:58:12;100682.88;;;19.75;100.00
56174;BME280;42058;52.308;20.924;2022-07-24T03:00:38;100678.48;;;19.74;100.00
56174;BME280;42058;52.308;20.924;2022-07-24T03:03:04;100684.36;;;19.72;100.00
56174;BME280;42058;52.308;20.924;2022-07-24T03:05:30;100690.19;;;19.72;100.00
56174;BME280;42058;52.308;20.924;2022-07-24T03:07:56;100682.75;;;19.70;100.00
56174;BME280;42058;52.308;20.924;2022-07-24T03:10:23;100689.51;;;19.68;100.00
56174;BME280;42058;52.308;20.924;2022-07-24T03:12:49;100688.34;;;19.65;100.00
56174;BME280;42058;52.308;20.924;2022-07-24T03:15:17;100692.53;;;19.62;100.00
56174;BME280;42058;52.308;20.924;2022-07-24T03:17:52;100695.77;;;19.60;100.00
56174;BME280;42058;52.308;20.924;2022-07-24T03:20:21;100695.58;;;19.56;100.00
56174;BME280;42058;52.308;20.924;2022-07-24T03:22:48;100704.64;;;19.53;100.00
56174;BME280;42058;52.308;20.924;2022-07-24T03:25:15;100707.48;;;19.50;100.00
56174;BME280;42058;52.308;20.924;2022-07-24T03:27:41;100711.20;;;19.48;100.00
56174;BME280;42058;52.308;20.924;2022-07-24T03:30:09;100712.71;;;19.45;100.00
56174;BME280;42058;52.308;20.924;2022-07-24T03:32:36;100712.80;;;19.43;100.00
56174;BME280;42058;52.308;20.924;2022-07-24T03:35:03;100722.23;;;19.42;100.00
56174;BME280;42058;52.308;20.924;2022-07-24T03:37:29;100719.76;;;19.38;100.00
56174;BME280;42058;52.308;20.924;2022-07-24T03:39:55;100716.01;;;19.34;100.00
56174;BME280;42058;52.308;20.924;2022-07-24T03:42:22;100723.34;;;19.30;100.00
56174;BME280;42058;52.308;20.924;2022-07-24T03:44:48;100722.00;;;19.30;100.00
56174;BME280;42058;52.308;20.924;2022-07-24T03:47:14;100725.23;;;19.28;100.00
56174;BME280;42058;52.308;20.924;2022-07-24T03:49:40;100726.17;;;19.27;100.00
56174;BME280;42058;52.308;20.924;2022-07-24T03:52:06;100732.84;;;19.27;100.00
56174;BME280;42058;52.308;20.924;2022-07-24T03:54:33;100736.76;;;19.29;100.00
56174;BME280;42058;52.308;20.924;2022-07-24T03:56:59;100731.98;;;19.27;100.00
56174;BME280;42058;52.308;20.924;2022-07-24T03:59:25;100729.32;;;19.27;100.00
56174;BME280;42058;52.308;20.924;2022-07-24T04:01:51;100730.14;;;19.20;100.00
56174;BME280;42058;52.308;20.924;2022-07-24T04:04:18;100733.05;;;19.24;100.00
56174;BME280;42058;52.308;20.924;2022-07-24T04:06:44;100732.47;;;19.26;100.00
56174;BME280;42058;52.308;20.924;2022-07-24T04:09:10;100739.14;;;19.26;100.00
56174;BME280;42058;52.308;20.924;2022-07-24T04:11:36;100747.15;;;19.26;100.00
56174;BME280;42058;52.308;20.924;2022-07-24T04:14:02;100745.41;;;19.25;100.00
56174;BME280;42058;52.308;20.924;2022-07-24T04:16:28;100745.41;;;19.25;100.00
56174;BME280;42058;52.308;20.924;2022-07-24T04:18:55;100743.14;;;19.26;100.00
56174;BME280;42058;52.308;20.924;2022-07-24T04:21:21;100750.19;;;19.27;100.00
56174;BME280;42058;52.308;20.924;2022-07-24T04:23:47;100746.27;;;19.26;100.00
56174;BME280;42058;52.308;20.924;2022-07-24T04:26:13;100742.17;;;19.27;100.00
56174;BME280;42058;52.308;20.924;2022-07-24T04:28:39;100739.14;;;19.26;100.00
56174;BME280;42058;52.308;20.924;2022-07-24T04:31:08;100746.58;;;19.28;100.00
56174;BME280;42058;52.308;20.924;2022-07-24T04:33:34;100745.25;;;19.28;100.00
56174;BME280;42058;52.308;20.924;2022-07-24T04:36:00;100752.69;;;19.30;100.00
56174;BME280;42058;52.308;20.924;2022-07-24T04:38:26;100750.78;;;19.32;100.00
56174;BME280;42058;52.308;20.924;2022-07-24T04:40:52;100752.44;;;19.35;100.00
56174;BME280;42058;52.308;20.924;2022-07-24T04:43:18;100746.70;;;19.34;100.00
56174;BME280;42058;52.308;20.924;2022-07-24T04:45:44;100748.31;;;19.36;100.00
56174;BME280;42058;52.308;20.924;2022-07-24T04:48:10;100749.96;;;19.39;100.00
56174;BME280;42058;52.308;20.924;2022-07-24T04:50:36;100751.21;;;19.40;100.00
56174;BME280;42058;52.308;20.924;2022-07-24T04:53:03;100746.24;;;19.42;100.00
56174;BME280;42058;52.308;20.924;2022-07-24T04:55:29;100746.19;;;19.50;100.00
56174;BME280;42058;52.308;20.924;2022-07-24T04:57:55;100748.96;;;19.56;100.00
56174;BME280;42058;52.308;20.924;2022-07-24T05:00:21;100747.83;;;19.60;100.00
56174;BME280;42058;52.308;20.924;2022-07-24T05:02:47;100751.17;;;19.64;100.00
56174;BME280;42058;52.308;20.924;2022-07-24T05:05:13;100752.25;;;19.68;100.00
56174;BME280;42058;52.308;20.924;2022-07-24T05:07:39;100752.08;;;19.71;100.00
56174;BME280;42058;52.308;20.924;2022-07-24T05:10:06;100750.20;;;19.73;100.00
56174;BME280;42058;52.308;20.924;2022-07-24T05:12:33;100750.39;;;19.77;100.00
56174;BME280;42058;52.308;20.924;2022-07-24T05:14:59;100753.34;;;19.80;100.00
56174;BME280;42058;52.308;20.924;2022-07-24T05:17:25;100759.00;;;19.83;100.00
56174;BME280;42058;52.308;20.924;2022-07-24T05:19:51;100761.38;;;19.87;100.00
56174;BME280;42058;52.308;20.924;2022-07-24T05:22:17;100760.72;;;19.91;100.00
56174;BME280;42058;52.308;20.924;2022-07-24T05:24:43;100767.98;;;19.96;100.00
56174;BME280;42058;52.308;20.924;2022-07-24T05:27:10;100764.56;;;20.01;100.00
56174;BME280;42058;52.308;20.924;2022-07-24T05:29:36;100759.80;;;20.06;100.00
56174;BME280;42058;52.308;20.924;2022-07-24T05:32:02;100769.16;;;20.13;100.00
56174;BME280;42058;52.308;20.924;2022-07-24T05:34:28;100761.16;;;20.21;100.00
56174;BME280;42058;52.308;20.924;2022-07-24T05:36:55;100759.43;;;20.27;100.00
56174;BME280;42058;52.308;20.924;2022-07-24T05:39:21;100762.77;;;20.30;100.00
56174;BME280;42058;52.308;20.924;2022-07-24T05:41:47;100765.72;;;20.33;100.00
56174;BME280;42058;52.308;20.924;2022-07-24T05:44:13;100767.27;;;20.37;100.00
56174;BME280;42058;52.308;20.924;2022-07-24T05:46:39;100768.61;;;20.37;100.00
56174;BME280;42058;52.308;20.924;2022-07-24T05:49:05;100769.73;;;20.40;100.00
56174;BME280;42058;52.308;20.924;2022-07-24T05:51:32;100768.57;;;20.44;100.00
56174;BME280;42058;52.308;20.924;2022-07-24T05:53:58;100771.83;;;20.49;100.00
56174;BME280;42058;52.308;20.924;2022-07-24T05:56:24;100770.13;;;20.55;100.00
56174;BME280;42058;52.308;20.924;2022-07-24T05:58:50;100766.69;;;20.61;100.00
56174;BME280;42058;52.308;20.924;2022-07-24T06:01:16;100767.27;;;20.66;100.00
56174;BME280;42058;52.308;20.924;2022-07-24T06:03:42;100769.56;;;20.72;100.00
56174;BME280;42058;52.308;20.924;2022-07-24T06:06:09;100766.09;;;20.77;100.00
56174;BME280;42058;52.308;20.924;2022-07-24T06:08:35;100773.44;;;20.81;100.00
56174;BME280;42058;52.308;20.924;2022-07-24T06:11:01;100778.52;;;20.85;100.00
56174;BME280;42058;52.308;20.924;2022-07-24T06:13:27;100775.43;;;20.91;100.00
56174;BME280;42058;52.308;20.924;2022-07-24T06:15:53;100773.81;;;20.96;100.00
56174;BME280;42058;52.308;20.924;2022-07-24T06:18:19;100772.55;;;21.02;100.00
56174;BME280;42058;52.308;20.924;2022-07-24T06:20:46;100770.52;;;21.12;100.00
56174;BME280;42058;52.308;20.924;2022-07-24T06:23:12;100771.35;;;21.20;100.00
56174;BME280;42058;52.308;20.924;2022-07-24T06:25:38;100771.33;;;21.27;100.00
56174;BME280;42058;52.308;20.924;2022-07-24T06:28:04;100770.81;;;21.35;100.00
56174;BME280;42058;52.308;20.924;2022-07-24T06:30:30;100770.88;;;21.41;100.00
56174;BME280;42058;52.308;20.924;2022-07-24T06:32:58;100770.52;;;21.47;100.00
56174;BME280;42058;52.308;20.924;2022-07-24T06:35:26;100773.04;;;21.56;100.00
56174;BME280;42058;52.308;20.924;2022-07-24T06:37:53;100778.10;;;21.60;100.00
56174;BME280;42058;52.308;20.924;2022-07-24T06:40:21;100777.22;;;21.67;100.00
56174;BME280;42058;52.308;20.924;2022-07-24T06:42:48;100771.14;;;21.78;100.00
56174;BME280;42058;52.308;20.924;2022-07-24T06:45:15;100776.97;;;21.90;100.00
56174;BME280;42058;52.308;20.924;2022-07-24T06:47:41;100770.77;;;22.02;100.00
56174;BME280;42058;52.308;20.924;2022-07-24T06:50:09;100777.48;;;22.15;100.00
56174;BME280;42058;52.308;20.924;2022-07-24T06:52:36;100772.92;;;22.23;97.56
56174;BME280;42058;52.308;20.924;2022-07-24T06:55:03;100773.88;;;22.29;97.11
56174;BME280;42058;52.308;20.924;2022-07-24T06:57:30;100773.13;;;22.40;98.42
56174;BME280;42058;52.308;20.924;2022-07-24T06:59:56;100777.00;;;22.54;97.93
56174;BME280;42058;52.308;20.924;2022-07-24T07:02:22;100776.37;;;22.63;96.54
56174;BME280;42058;52.308;20.924;2022-07-24T07:04:48;100777.41;;;22.74;94.54
56174;BME280;42058;52.308;20.924;2022-07-24T07:07:15;100777.02;;;22.86;95.44
56174;BME280;42058;52.308;20.924;2022-07-24T07:09:42;100784.61;;;22.92;92.57
56174;BME280;42058;52.308;20.924;2022-07-24T07:12:09;100782.80;;;22.98;91.78
56174;BME280;42058;52.308;20.924;2022-07-24T07:14:36;100790.53;;;23.02;90.21
56174;BME280;42058;52.308;20.924;2022-07-24T07:17:02;100780.82;;;23.07;88.66
56174;BME280;42058;52.308;20.924;2022-07-24T07:19:29;100780.28;;;23.15;88.82
56174;BME280;42058;52.308;20.924;2022-07-24T07:21:55;100782.39;;;23.22;87.89
56174;BME280;42058;52.308;20.924;2022-07-24T07:24:21;100781.56;;;23.28;86.18
56174;BME280;42058;52.308;20.924;2022-07-24T07:26:47;100779.05;;;23.37;87.98
56174;BME280;42058;52.308;20.924;2022-07-24T07:29:13;100787.88;;;23.51;87.16
56174;BME280;42058;52.308;20.924;2022-07-24T07:31:39;100786.85;;;23.65;87.34
56174;BME280;42058;52.308;20.924;2022-07-24T07:34:05;100789.57;;;23.76;86.25
56174;BME280;42058;52.308;20.924;2022-07-24T07:36:31;100781.57;;;23.87;85.01
56174;BME280;42058;52.308;20.924;2022-07-24T07:38:58;100786.49;;;23.93;84.37
56174;BME280;42058;52.308;20.924;2022-07-24T07:41:24;100787.62;;;24.08;84.69
56174;BME280;42058;52.308;20.924;2022-07-24T07:43:51;100786.30;;;24.19;83.67
56174;BME280;42058;52.308;20.924;2022-07-24T07:46:17;100797.67;;;24.28;83.42
56174;BME280;42058;52.308;20.924;2022-07-24T07:48:43;100793.99;;;24.35;80.35
56174;BME280;42058;52.308;20.924;2022-07-24T07:51:10;100798.80;;;24.43;78.19
56174;BME280;42058;52.308;20.924;2022-07-24T07:53:37;100789.99;;;24.46;78.83
56174;BME280;42058;52.308;20.924;2022-07-24T07:56:03;100794.41;;;24.53;79.52
56174;BME280;42058;52.308;20.924;2022-07-24T07:58:31;100811.66;;;24.56;79.22
56174;BME280;42058;52.308;20.924;2022-07-24T08:00:57;100808.85;;;24.63;79.47
56174;BME280;42058;52.308;20.924;2022-07-24T08:03:23;100807.00;;;24.75;78.83
56174;BME280;42058;52.308;20.924;2022-07-24T08:05:50;100801.26;;;24.80;78.80
56174;BME280;42058;52.308;20.924;2022-07-24T08:08:16;100810.06;;;24.82;77.42
56174;BME280;42058;52.308;20.924;2022-07-24T08:10:42;100813.37;;;24.80;75.73
56174;BME280;42058;52.308;20.924;2022-07-24T08:13:08;100812.52;;;24.79;76.39
56174;BME280;42058;52.308;20.924;2022-07-24T08:15:34;100818.64;;;24.75;76.17
56174;BME280;42058;52.308;20.924;2022-07-24T08:18:00;100822.19;;;24.70;74.52
56174;BME280;42058;52.308;20.924;2022-07-24T08:20:27;100821.06;;;24.73;77.16
56174;BME280;42058;52.308;20.924;2022-07-24T08:22:53;100819.25;;;24.85;78.74
56174;BME280;42058;52.308;20.924;2022-07-24T08:25:20;100821.19;;;24.94;77.91
56174;BME280;42058;52.308;20.924;2022-07-24T08:27:47;100823.64;;;24.97;76.93
56174;BME280;42058;52.308;20.924;2022-07-24T08:30:14;100826.58;;;24.94;76.46
56174;BME280;42058;52.308;20.924;2022-07-24T08:32:41;100831.23;;;24.92;76.90
56174;BME280;42058;52.308;20.924;2022-07-24T08:35:09;100828.16;;;24.91;77.29
56174;BME280;42058;52.308;20.924;2022-07-24T08:37:38;100830.13;;;24.89;76.12
56174;BME280;42058;52.308;20.924;2022-07-24T08:40:06;100827.43;;;24.89;76.09
56174;BME280;42058;52.308;20.924;2022-07-24T08:42:35;100827.67;;;24.86;76.26
56174;BME280;42058;52.308;20.924;2022-07-24T08:45:03;100829.75;;;24.82;76.03
56174;BME280;42058;52.308;20.924;2022-07-24T08:47:30;100835.14;;;24.77;75.80
56174;BME280;42058;52.308;20.924;2022-07-24T08:49:59;100834.64;;;24.71;75.75
56174;BME280;42058;52.308;20.924;2022-07-24T08:52:30;100835.14;;;24.65;75.85
56174;BME280;42058;52.308;20.924;2022-07-24T08:54:56;100831.84;;;24.62;76.41
56174;BME280;42058;52.308;20.924;2022-07-24T08:57:23;100839.41;;;24.62;76.40
56174;BME280;42058;52.308;20.924;2022-07-24T08:59:49;100839.56;;;24.61;77.56
56174;BME280;42058;52.308;20.924;2022-07-24T09:02:15;100839.67;;;24.59;76.17
56174;BME280;42058;52.308;20.924;2022-07-24T09:04:46;100836.84;;;24.55;75.02
56174;BME280;42058;52.308;20.924;2022-07-24T09:07:16;100844.14;;;24.47;73.51
56174;BME280;42058;52.308;20.924;2022-07-24T09:10:02;100839.25;;;24.41;74.96
56174;BME280;42058;52.308;20.924;2022-07-24T09:12:34;100838.64;;;24.37;74.04
56174;BME280;42058;52.308;20.924;2022-07-24T09:15:12;100838.36;;;24.29;73.49
56174;BME280;42058;52.308;20.924;2022-07-24T09:17:55;100842.28;;;24.25;74.77
56174;BME280;42058;52.308;20.924;2022-07-24T09:20:23;100847.53;;;24.21;76.63
56174;BME280;42058;52.308;20.924;2022-07-24T09:22:53;100851.91;;;24.22;78.07
56174;BME280;42058;52.308;20.924;2022-07-24T09:25:28;100851.91;;;24.22;78.40
56174;BME280;42058;52.308;20.924;2022-07-24T09:27:57;100850.95;;;24.23;77.51
56174;BME280;42058;52.308;20.924;2022-07-24T09:30:29;100846.19;;;24.21;76.39
56174;BME280;42058;52.308;20.924;2022-07-24T09:33:01;100851.56;;;24.21;77.88
56174;BME280;42058;52.308;20.924;2022-07-24T09:35:40;100853.52;;;24.19;77.86
56174;BME280;42058;52.308;20.924;2022-07-24T09:38:14;100864.27;;;24.19;78.36
56174;BME280;42058;52.308;20.924;2022-07-24T09:40:49;100859.12;;;24.16;78.71
56174;BME280;42058;52.308;20.924;2022-07-24T09:43:32;100865.49;;;24.15;79.50
56174;BME280;42058;52.308;20.924;2022-07-24T09:46:05;100862.30;;;24.10;79.66
56174;BME280;42058;52.308;20.924;2022-07-24T09:49:02;100870.20;;;24.06;79.34
56174;BME280;42058;52.308;20.924;2022-07-24T09:51:19;100871.42;;;24.02;78.68
56174;BME280;42058;52.308;20.924;2022-07-24T09:53:52;100873.59;;;23.96;78.87
56174;BME280;42058;52.308;20.924;2022-07-24T09:56:19;100870.88;;;23.91;79.11
56174;BME280;42058;52.308;20.924;2022-07-24T09:58:49;100874.67;;;23.88;79.86
56174;BME280;42058;52.308;20.924;2022-07-24T10:01:22;100871.88;;;23.90;79.88
56174;BME280;42058;52.308;20.924;2022-07-24T10:03:51;100871.98;;;23.88;80.21
56174;BME280;42058;52.308;20.924;2022-07-24T10:06:21;100867.57;;;23.87;80.83
56174;BME280;42058;52.308;20.924;2022-07-24T10:08:54;100873.33;;;23.88;81.40
56174;BME280;42058;52.308;20.924;2022-07-24T10:11:21;100882.73;;;23.88;81.85
56174;BME280;42058;52.308;20.924;2022-07-24T10:13:48;100884.08;;;23.88;81.41
56174;BME280;42058;52.308;20.924;2022-07-24T10:16:29;100889.81;;;23.89;81.68
56174;BME280;42058;52.308;20.924;2022-07-24T10:19:01;100897.02;;;23.89;81.86
56174;BME280;42058;52.308;20.924;2022-07-24T10:21:35;100890.41;;;23.87;82.43
56174;BME280;42058;52.308;20.924;2022-07-24T10:26:49;100897.52;;;23.88;82.57
56174;BME280;42058;52.308;20.924;2022-07-24T10:29:19;100892.38;;;23.91;82.28
56174;BME280;42058;52.308;20.924;2022-07-24T10:31:53;100899.00;;;23.92;82.56
56174;BME280;42058;52.308;20.924;2022-07-24T10:34:41;100896.20;;;23.94;82.80
56174;BME280;42058;52.308;20.924;2022-07-24T10:40:17;100890.71;;;23.95;82.59
56174;BME280;42058;52.308;20.924;2022-07-24T10:45:37;100899.13;;;23.96;83.62
56174;BME280;42058;52.308;20.924;2022-07-24T10:51:04;100906.34;;;23.96;82.76
56174;BME280;42058;52.308;20.924;2022-07-24T10:56:43;100902.80;;;23.95;83.03
56174;BME280;42058;52.308;20.924;2022-07-24T11:07:14;100903.16;;;23.96;82.58
56174;BME280;42058;52.308;20.924;2022-07-24T11:10:02;100902.91;;;23.94;83.02
56174;BME280;42058;52.308;20.924;2022-07-24T11:12:40;100900.12;;;23.95;83.04
56174;BME280;42058;52.308;20.924;2022-07-24T11:15:06;100908.92;;;23.97;83.20
56174;BME280;42058;52.308;20.924;2022-07-24T11:17:50;100912.56;;;23.96;83.04
56174;BME280;42058;52.308;20.924;2022-07-24T11:20:18;100912.56;;;23.96;82.52
56174;BME280;42058;52.308;20.924;2022-07-24T11:22:49;100914.52;;;23.94;83.06
56174;BME280;42058;52.308;20.924;2022-07-24T11:25:25;100910.48;;;23.94;83.14
56174;BME280;42058;52.308;20.924;2022-07-24T11:27:58;100910.98;;;23.94;83.59
56174;BME280;42058;52.308;20.924;2022-07-24T11:30:33;100911.47;;;23.93;83.13
56174;BME280;42058;52.308;20.924;2022-07-24T11:33:03;100914.63;;;23.93;83.34
56174;BME280;42058;52.308;20.924;2022-07-24T11:35:32;100917.81;;;23.92;83.41
56174;BME280;42058;52.308;20.924;2022-07-24T11:38:02;100912.08;;;23.91;82.07
56174;BME280;42058;52.308;20.924;2022-07-24T11:40:30;100908.16;;;23.90;82.59
56174;BME280;42058;52.308;20.924;2022-07-24T11:42:58;100913.53;;;23.90;82.69
56174;BME280;42058;52.308;20.924;2022-07-24T11:45:29;100919.63;;;23.86;82.31
56174;BME280;42058;52.308;20.924;2022-07-24T11:47:55;100922.53;;;23.83;82.17
56174;BME280;42058;52.308;20.924;2022-07-24T11:50:24;100914.03;;;23.76;82.55
56174;BME280;42058;52.308;20.924;2022-07-24T11:52:53;100910.14;;;23.75;82.39
56174;BME280;42058;52.308;20.924;2022-07-24T11:55:22;100915.97;;;23.74;83.31
56174;BME280;42058;52.308;20.924;2022-07-24T11:57:53;100921.45;;;23.73;83.53
56174;BME280;42058;52.308;20.924;2022-07-24T12:00:23;100927.22;;;23.74;83.95
56174;BME280;42058;52.308;20.924;2022-07-24T12:02:54;100926.37;;;23.73;84.00
56174;BME280;42058;52.308;20.924;2022-07-24T12:05:32;100920.11;;;23.73;82.29
56174;BME280;42058;52.308;20.924;2022-07-24T12:07:58;100921.84;;;23.74;82.25
56174;BME280;42058;52.308;20.924;2022-07-24T12:10:26;100916.85;;;23.75;81.81
56174;BME280;42058;52.308;20.924;2022-07-24T12:12:54;100915.86;;;23.76;83.24
56174;BME280;42058;52.308;20.924;2022-07-24T12:15:25;100918.33;;;23.79;84.18
56174;BME280;42058;52.308;20.924;2022-07-24T12:18:04;100914.23;;;23.81;83.60
56174;BME280;42058;52.308;20.924;2022-07-24T12:20:37;100918.14;;;23.82;83.95
56174;BME280;42058;52.308;20.924;2022-07-24T12:23:01;100918.25;;;23.81;83.68
56174;BME280;42058;52.308;20.924;2022-07-24T12:25:29;100920.17;;;23.78;83.68
56174;BME280;42058;52.308;20.924;2022-07-24T12:28:16;100918.94;;;23.77;83.21
56174;BME280;42058;52.308;20.924;2022-07-24T12:30:48;100920.28;;;23.77;83.87
56174;BME280;42058;52.308;20.924;2022-07-24T12:38:52;100919.54;;;23.75;84.58
56174;BME280;42058;52.308;20.924;2022-07-24T12:41:24;100916.36;;;23.75;84.44
56174;BME280;42058;52.308;20.924;2022-07-24T12:44:03;100924.91;;;23.75;84.45
56174;BME280;42058;52.308;20.924;2022-07-24T12:46:32;100919.16;;;23.74;84.05
56174;BME280;42058;52.308;20.924;2022-07-24T12:49:08;100925.37;;;23.74;84.04
56174;BME280;42058;52.308;20.924;2022-07-24T12:51:56;100926.83;;;23.73;82.42
56174;BME280;42058;52.308;20.924;2022-07-24T12:56:57;100924.75;;;23.71;83.54
56174;BME280;42058;52.308;20.924;2022-07-24T12:59:29;100915.73;;;23.72;84.29
56174;BME280;42058;52.308;20.924;2022-07-24T13:01:58;100920.61;;;23.72;83.91
56174;BME280;42058;52.308;20.924;2022-07-24T13:04:27;100921.84;;;23.74;83.50
56174;BME280;42058;52.308;20.924;2022-07-24T13:06:56;100920.88;;;23.75;83.43
56174;BME280;42058;52.308;20.924;2022-07-24T13:09:24;100919.29;;;23.78;83.48
56174;BME280;42058;52.308;20.924;2022-07-24T13:11:53;100919.29;;;23.78;83.66